sensor_id;sensor_type;location;lat;lon;timestamp;P1;durP1;ratioP1;P2;durP2;ratioP2
6505;SDS011;3286;49.858;8.768;2023-06-19T00:01:56;9.38;;;5.00;;
6505;SDS011;3286;49.858;8.768;2023-06-19T00:04:22;6.35;;;5.00;;
6505;SDS011;3286;49.858;8.768;2023-06-19T00:06:50;5.43;;;4.93;;
6505;SDS011;3286;49.858;8.768;2023-06-19T00:09:17;6.97;;;4.63;;
6505;SDS011;3286;49.858;8.768;2023-06-19T00:11:44;5.55;;;4.80;;
6505;SDS011;3286;49.858;8.768;2023-06-19T00:14:10;9.25;;;4.75;;
6505;SDS011;3286;49.858;8.768;2023-06-19T00:16:37;5.82;;;5.30;;
6505;SDS011;3286;49.858;8.768;2023-06-19T00:19:05;5.72;;;4.88;;
6505;SDS011;3286;49.858;8.768;2023-06-19T00:21:31;5.68;;;4.80;;
6505;SDS011;3286;49.858;8.768;2023-06-19T00:23:59;5.80;;;5.07;;
6505;SDS011;3286;49.858;8.768;2023-06-19T00:26:27;7.82;;;5.20;;
6505;SDS011;3286;49.858;8.768;2023-06-19T00:28:53;5.65;;;4.80;;
6505;SDS011;3286;49.858;8.768;2023-06-19T00:31:20;5.30;;;4.80;;
6505;SDS011;3286;49.858;8.768;2023-06-19T00:33:46;6.05;;;4.78;;
6505;SDS011;3286;49.858;8.768;2023-06-19T00:36:14;6.15;;;4.68;;
6505;SDS011;3286;49.858;8.768;2023-06-19T00:38:45;5.25;;;4.75;;
6505;SDS011;3286;49.858;8.768;2023-06-19T00:41:13;10.45;;;6.35;;
6505;SDS011;3286;49.858;8.768;2023-06-19T00:43:41;7.07;;;5.60;;
6505;SDS011;3286;49.858;8.768;2023-06-19T00:46:08;9.98;;;6.93;;
6505;SDS011;3286;49.858;8.768;2023-06-19T00:48:35;6.88;;;6.00;;
6505;SDS011;3286;49.858;8.768;2023-06-19T00:51:02;6.03;;;5.05;;
6505;SDS011;3286;49.858;8.768;2023-06-19T00:53:29;5.75;;;5.20;;
6505;SDS011;3286;49.858;8.768;2023-06-19T00:55:58;5.82;;;5.28;;
6505;SDS011;3286;49.858;8.768;2023-06-19T00:58:27;7.57;;;5.28;;
6505;SDS011;3286;49.858;8.768;2023-06-19T01:00:53;8.07;;;5.40;;
6505;SDS011;3286;49.858;8.768;2023-06-19T01:03:22;8.10;;;5.57;;
6505;SDS011;3286;49.858;8.768;2023-06-19T01:05:48;5.88;;;5.18;;
6505;SDS011;3286;49.858;8.768;2023-06-19T01:08:22;8.05;;;5.53;;
6505;SDS011;3286;49.858;8.768;2023-06-19T01:11:04;7.30;;;5.72;;
6505;SDS011;3286;49.858;8.768;2023-06-19T01:13:34;5.93;;;5.38;;
6505;SDS011;3286;49.858;8.768;2023-06-19T01:16:06;6.88;;;5.93;;
6505;SDS011;3286;49.858;8.768;2023-06-19T01:18:33;10.88;;;6.28;;
6505;SDS011;3286;49.858;8.768;2023-06-19T01:21:08;6.53;;;5.40;;
6505;SDS011;3286;49.858;8.768;2023-06-19T01:23:37;7.50;;;5.55;;
6505;SDS011;3286;49.858;8.768;2023-06-19T01:26:05;6.15;;;5.07;;
6505;SDS011;3286;49.858;8.768;2023-06-19T01:28:32;8.90;;;5.85;;
6505;SDS011;3286;49.858;8.768;2023-06-19T01:30:59;7.35;;;5.93;;
6505;SDS011;3286;49.858;8.768;2023-06-19T01:33:28;6.78;;;5.35;;
6505;SDS011;3286;49.858;8.768;2023-06-19T01:35:57;6.63;;;5.50;;
6505;SDS011;3286;49.858;8.768;2023-06-19T01:38:24;5.90;;;5.30;;
6505;SDS011;3286;49.858;8.768;2023-06-19T01:40:55;5.97;;;5.05;;
6505;SDS011;3286;49.858;8.768;2023-06-19T01:43:24;6.05;;;5.30;;
6505;SDS011;3286;49.858;8.768;2023-06-19T01:45:52;6.22;;;5.43;;
6505;SDS011;3286;49.858;8.768;2023-06-19T01:48:19;7.35;;;5.28;;
6505;SDS011;3286;49.858;8.768;2023-06-19T01:50:45;6.47;;;5.68;;
6505;SDS011;3286;49.858;8.768;2023-06-19T01:53:13;5.72;;;4.90;;
6505;SDS011;3286;49.858;8.768;2023-06-19T01:55:39;9.43;;;5.47;;
6505;SDS011;3286;49.858;8.768;2023-06-19T01:58:08;5.97;;;5.22;;
6505;SDS011;3286;49.858;8.768;2023-06-19T02:00:34;5.57;;;5.03;;
6505;SDS011;3286;49.858;8.768;2023-06-19T02:03:02;5.60;;;4.75;;
6505;SDS011;3286;49.858;8.768;2023-06-19T02:05:29;9.27;;;5.25;;
6505;SDS011;3286;49.858;8.768;2023-06-19T02:07:55;6.20;;;5.20;;
6505;SDS011;3286;49.858;8.768;2023-06-19T02:10:22;8.07;;;4.68;;
6505;SDS011;3286;49.858;8.768;2023-06-19T02:12:49;18.73;;;7.35;;
6505;SDS011;3286;49.858;8.768;2023-06-19T02:15:17;7.28;;;5.30;;
6505;SDS011;3286;49.858;8.768;2023-06-19T02:17:44;9.48;;;5.60;;
6505;SDS011;3286;49.858;8.768;2023-06-19T02:20:11;8.52;;;5.13;;
6505;SDS011;3286;49.858;8.768;2023-06-19T02:22:38;13.15;;;6.28;;
6505;SDS011;3286;49.858;8.768;2023-06-19T02:25:05;8.23;;;5.35;;
6505;SDS011;3286;49.858;8.768;2023-06-19T02:27:32;8.85;;;5.35;;
6505;SDS011;3286;49.858;8.768;2023-06-19T02:29:59;15.70;;;5.30;;
6505;SDS011;3286;49.858;8.768;2023-06-19T02:32:27;8.07;;;5.20;;
6505;SDS011;3286;49.858;8.768;2023-06-19T02:34:54;8.25;;;5.47;;
6505;SDS011;3286;49.858;8.768;2023-06-19T02:37:20;7.10;;;5.32;;
6505;SDS011;3286;49.858;8.768;2023-06-19T02:39:47;8.45;;;5.20;;
6505;SDS011;3286;49.858;8.768;2023-06-19T02:42:14;8.00;;;5.35;;
6505;SDS011;3286;49.858;8.768;2023-06-19T02:44:40;19.63;;;6.68;;
6505;SDS011;3286;49.858;8.768;2023-06-19T02:47:08;6.82;;;5.38;;
6505;SDS011;3286;49.858;8.768;2023-06-19T02:49:36;5.65;;;4.97;;
6505;SDS011;3286;49.858;8.768;2023-06-19T02:52:03;5.97;;;5.10;;
6505;SDS011;3286;49.858;8.768;2023-06-19T02:54:31;9.65;;;5.82;;
6505;SDS011;3286;49.858;8.768;2023-06-19T02:56:57;14.13;;;6.63;;
6505;SDS011;3286;49.858;8.768;2023-06-19T02:59:25;6.82;;;4.75;;
6505;SDS011;3286;49.858;8.768;2023-06-19T03:01:51;5.75;;;5.15;;
6505;SDS011;3286;49.858;8.768;2023-06-19T03:04:18;11.45;;;4.90;;
6505;SDS011;3286;49.858;8.768;2023-06-19T03:06:46;7.70;;;4.85;;
6505;SDS011;3286;49.858;8.768;2023-06-19T03:09:13;12.68;;;6.72;;
6505;SDS011;3286;49.858;8.768;2023-06-19T03:11:40;8.80;;;5.00;;
6505;SDS011;3286;49.858;8.768;2023-06-19T03:14:07;7.93;;;4.97;;
6505;SDS011;3286;49.858;8.768;2023-06-19T03:16:34;11.02;;;5.10;;
6505;SDS011;3286;49.858;8.768;2023-06-19T03:19:01;8.63;;;4.93;;
6505;SDS011;3286;49.858;8.768;2023-06-19T03:21:28;6.80;;;5.43;;
6505;SDS011;3286;49.858;8.768;2023-06-19T03:23:56;5.57;;;5.00;;
6505;SDS011;3286;49.858;8.768;2023-06-19T03:26:23;6.05;;;5.30;;
6505;SDS011;3286;49.858;8.768;2023-06-19T03:28:50;6.40;;;5.05;;
6505;SDS011;3286;49.858;8.768;2023-06-19T03:31:17;5.72;;;5.13;;
6505;SDS011;3286;49.858;8.768;2023-06-19T03:33:44;7.95;;;5.93;;
6505;SDS011;3286;49.858;8.768;2023-06-19T03:36:11;5.45;;;4.95;;
6505;SDS011;3286;49.858;8.768;2023-06-19T03:38:40;10.18;;;5.78;;
6505;SDS011;3286;49.858;8.768;2023-06-19T03:41:08;8.82;;;5.80;;
6505;SDS011;3286;49.858;8.768;2023-06-19T03:43:34;6.15;;;4.90;;
6505;SDS011;3286;49.858;8.768;2023-06-19T03:46:01;5.13;;;4.63;;
6505;SDS011;3286;49.858;8.768;2023-06-19T03:48:27;6.20;;;4.93;;
6505;SDS011;3286;49.858;8.768;2023-06-19T03:50:54;7.22;;;5.30;;
6505;SDS011;3286;49.858;8.768;2023-06-19T03:53:21;11.80;;;5.18;;
6505;SDS011;3286;49.858;8.768;2023-06-19T03:55:48;5.93;;;5.03;;
6505;SDS011;3286;49.858;8.768;2023-06-19T03:58:16;7.75;;;5.35;;
6505;SDS011;3286;49.858;8.768;2023-06-19T04:00:42;17.83;;;7.40;;
6505;SDS011;3286;49.858;8.768;2023-06-19T04:03:09;5.70;;;5.05;;
6505;SDS011;3286;49.858;8.768;2023-06-19T04:05:36;7.20;;;5.35;;
6505;SDS011;3286;49.858;8.768;2023-06-19T04:08:04;5.93;;;4.85;;
6505;SDS011;3286;49.858;8.768;2023-06-19T04:10:30;7.38;;;5.28;;
6505;SDS011;3286;49.858;8.768;2023-06-19T04:12:57;7.10;;;5.32;;
6505;SDS011;3286;49.858;8.768;2023-06-19T04:15:25;7.40;;;6.10;;
6505;SDS011;3286;49.858;8.768;2023-06-19T04:17:51;6.95;;;5.45;;
6505;SDS011;3286;49.858;8.768;2023-06-19T04:20:18;5.68;;;5.07;;
6505;SDS011;3286;49.858;8.768;2023-06-19T04:22:45;9.10;;;5.45;;
6505;SDS011;3286;49.858;8.768;2023-06-19T04:25:11;5.18;;;4.68;;
6505;SDS011;3286;49.858;8.768;2023-06-19T04:27:38;5.75;;;4.70;;
6505;SDS011;3286;49.858;8.768;2023-06-19T04:30:05;6.20;;;5.18;;
6505;SDS011;3286;49.858;8.768;2023-06-19T04:32:34;8.00;;;5.20;;
6505;SDS011;3286;49.858;8.768;2023-06-19T04:35:01;5.22;;;4.60;;
6505;SDS011;3286;49.858;8.768;2023-06-19T04:37:28;7.65;;;4.68;;
6505;SDS011;3286;49.858;8.768;2023-06-19T04:39:55;5.28;;;4.68;;
6505;SDS011;3286;49.858;8.768;2023-06-19T04:42:22;5.10;;;4.60;;
6505;SDS011;3286;49.858;8.768;2023-06-19T04:44:49;9.98;;;4.85;;
6505;SDS011;3286;49.858;8.768;2023-06-19T04:47:16;6.38;;;4.80;;
6505;SDS011;3286;49.858;8.768;2023-06-19T04:49:45;5.22;;;4.72;;
6505;SDS011;3286;49.858;8.768;2023-06-19T04:52:12;6.38;;;3.88;;
6505;SDS011;3286;49.858;8.768;2023-06-19T04:54:39;4.97;;;4.47;;
6505;SDS011;3286;49.858;8.768;2023-06-19T04:57:06;6.38;;;4.80;;
6505;SDS011;3286;49.858;8.768;2023-06-19T04:59:33;6.05;;;3.80;;
6505;SDS011;3286;49.858;8.768;2023-06-19T05:01:59;5.20;;;3.85;;
6505;SDS011;3286;49.858;8.768;2023-06-19T05:04:26;4.20;;;3.80;;
6505;SDS011;3286;49.858;8.768;2023-06-19T05:06:58;6.25;;;4.13;;
6505;SDS011;3286;49.858;8.768;2023-06-19T05:09:25;4.07;;;3.30;;
6505;SDS011;3286;49.858;8.768;2023-06-19T05:11:52;5.10;;;3.10;;
6505;SDS011;3286;49.858;8.768;2023-06-19T05:14:18;3.95;;;3.55;;
6505;SDS011;3286;49.858;8.768;2023-06-19T05:16:45;4.82;;;3.50;;
6505;SDS011;3286;49.858;8.768;2023-06-19T05:19:11;4.45;;;3.55;;
6505;SDS011;3286;49.858;8.768;2023-06-19T05:21:38;6.97;;;3.60;;
6505;SDS011;3286;49.858;8.768;2023-06-19T05:24:06;5.90;;;3.83;;
6505;SDS011;3286;49.858;8.768;2023-06-19T05:26:33;4.38;;;3.63;;
6505;SDS011;3286;49.858;8.768;2023-06-19T05:29:00;29.75;;;8.02;;
6505;SDS011;3286;49.858;8.768;2023-06-19T05:31:27;7.15;;;3.72;;
6505;SDS011;3286;49.858;8.768;2023-06-19T05:33:53;8.23;;;4.25;;
6505;SDS011;3286;49.858;8.768;2023-06-19T05:36:20;4.78;;;3.80;;
6505;SDS011;3286;49.858;8.768;2023-06-19T05:38:47;6.95;;;4.10;;
6505;SDS011;3286;49.858;8.768;2023-06-19T05:41:15;6.05;;;3.22;;
6505;SDS011;3286;49.858;8.768;2023-06-19T05:43:42;6.47;;;3.13;;
6505;SDS011;3286;49.858;8.768;2023-06-19T05:46:09;3.78;;;3.10;;
6505;SDS011;3286;49.858;8.768;2023-06-19T05:48:37;4.50;;;3.70;;
6505;SDS011;3286;49.858;8.768;2023-06-19T05:51:03;3.80;;;3.42;;
6505;SDS011;3286;49.858;8.768;2023-06-19T05:53:30;11.50;;;6.13;;
6505;SDS011;3286;49.858;8.768;2023-06-19T05:55:57;5.85;;;3.10;;
6505;SDS011;3286;49.858;8.768;2023-06-19T05:58:25;4.53;;;3.33;;
6505;SDS011;3286;49.858;8.768;2023-06-19T06:00:52;3.55;;;2.95;;
6505;SDS011;3286;49.858;8.768;2023-06-19T06:03:22;4.90;;;3.10;;
6505;SDS011;3286;49.858;8.768;2023-06-19T06:05:49;5.45;;;3.13;;
6505;SDS011;3286;49.858;8.768;2023-06-19T06:08:15;4.30;;;3.05;;
6505;SDS011;3286;49.858;8.768;2023-06-19T06:10:42;5.65;;;3.45;;
6505;SDS011;3286;49.858;8.768;2023-06-19T06:13:09;4.53;;;3.13;;
6505;SDS011;3286;49.858;8.768;2023-06-19T06:15:37;3.35;;;3.05;;
6505;SDS011;3286;49.858;8.768;2023-06-19T06:18:04;4.85;;;3.20;;
6505;SDS011;3286;49.858;8.768;2023-06-19T06:20:31;5.32;;;3.42;;
6505;SDS011;3286;49.858;8.768;2023-06-19T06:22:57;8.65;;;3.22;;
6505;SDS011;3286;49.858;8.768;2023-06-19T06:25:24;4.15;;;3.50;;
6505;SDS011;3286;49.858;8.768;2023-06-19T06:27:51;6.07;;;3.42;;
6505;SDS011;3286;49.858;8.768;2023-06-19T06:30:17;4.45;;;3.25;;
6505;SDS011;3286;49.858;8.768;2023-06-19T06:32:45;5.70;;;2.97;;
6505;SDS011;3286;49.858;8.768;2023-06-19T06:35:12;6.25;;;3.40;;
6505;SDS011;3286;49.858;8.768;2023-06-19T06:37:39;5.22;;;3.58;;
6505;SDS011;3286;49.858;8.768;2023-06-19T06:40:06;5.20;;;3.30;;
6505;SDS011;3286;49.858;8.768;2023-06-19T06:42:36;3.30;;;3.00;;
6505;SDS011;3286;49.858;8.768;2023-06-19T06:45:03;5.25;;;2.80;;
6505;SDS011;3286;49.858;8.768;2023-06-19T06:47:30;4.28;;;3.38;;
6505;SDS011;3286;49.858;8.768;2023-06-19T06:49:58;3.70;;;2.97;;
6505;SDS011;3286;49.858;8.768;2023-06-19T06:52:25;4.55;;;3.67;;
6505;SDS011;3286;49.858;8.768;2023-06-19T06:54:53;4.53;;;3.20;;
6505;SDS011;3286;49.858;8.768;2023-06-19T06:57:19;4.82;;;3.30;;
6505;SDS011;3286;49.858;8.768;2023-06-19T06:59:46;4.57;;;3.35;;
6505;SDS011;3286;49.858;8.768;2023-06-19T07:02:12;5.60;;;3.22;;
6505;SDS011;3286;49.858;8.768;2023-06-19T07:04:39;5.13;;;3.05;;
6505;SDS011;3286;49.858;8.768;2023-06-19T07:07:07;4.80;;;3.10;;
6505;SDS011;3286;49.858;8.768;2023-06-19T07:09:34;4.75;;;3.60;;
6505;SDS011;3286;49.858;8.768;2023-06-19T07:12:00;3.70;;;3.10;;
6505;SDS011;3286;49.858;8.768;2023-06-19T07:14:29;3.75;;;3.45;;
6505;SDS011;3286;49.858;8.768;2023-06-19T07:16:56;3.60;;;3.10;;
6505;SDS011;3286;49.858;8.768;2023-06-19T07:19:22;6.20;;;3.60;;
6505;SDS011;3286;49.858;8.768;2023-06-19T07:21:49;10.27;;;3.38;;
6505;SDS011;3286;49.858;8.768;2023-06-19T07:24:18;3.20;;;2.90;;
6505;SDS011;3286;49.858;8.768;2023-06-19T07:26:45;6.05;;;3.45;;
6505;SDS011;3286;49.858;8.768;2023-06-19T07:29:12;5.20;;;3.40;;
6505;SDS011;3286;49.858;8.768;2023-06-19T07:31:38;4.40;;;3.35;;
6505;SDS011;3286;49.858;8.768;2023-06-19T07:34:07;5.65;;;3.38;;
6505;SDS011;3286;49.858;8.768;2023-06-19T07:36:34;3.75;;;3.33;;
6505;SDS011;3286;49.858;8.768;2023-06-19T07:39:00;3.58;;;3.00;;
6505;SDS011;3286;49.858;8.768;2023-06-19T07:41:28;4.43;;;3.15;;
6505;SDS011;3286;49.858;8.768;2023-06-19T07:43:55;5.53;;;3.35;;
6505;SDS011;3286;49.858;8.768;2023-06-19T07:46:22;3.20;;;2.90;;
6505;SDS011;3286;49.858;8.768;2023-06-19T07:48:49;3.85;;;2.90;;
6505;SDS011;3286;49.858;8.768;2023-06-19T07:51:15;3.40;;;3.03;;
6505;SDS011;3286;49.858;8.768;2023-06-19T07:53:42;5.00;;;2.97;;
6505;SDS011;3286;49.858;8.768;2023-06-19T07:56:09;3.65;;;3.13;;
6505;SDS011;3286;49.858;8.768;2023-06-19T07:58:37;6.55;;;3.30;;
6505;SDS011;3286;49.858;8.768;2023-06-19T08:01:04;4.53;;;3.10;;
6505;SDS011;3286;49.858;8.768;2023-06-19T08:03:30;3.50;;;2.92;;
6505;SDS011;3286;49.858;8.768;2023-06-19T08:05:57;3.42;;;2.97;;
6505;SDS011;3286;49.858;8.768;2023-06-19T08:08:23;6.15;;;3.22;;
6505;SDS011;3286;49.858;8.768;2023-06-19T08:10:50;5.03;;;2.80;;
6505;SDS011;3286;49.858;8.768;2023-06-19T08:13:17;4.30;;;2.90;;
6505;SDS011;3286;49.858;8.768;2023-06-19T08:15:45;8.85;;;3.00;;
6505;SDS011;3286;49.858;8.768;2023-06-19T08:18:11;4.38;;;2.90;;
6505;SDS011;3286;49.858;8.768;2023-06-19T08:20:38;3.95;;;2.92;;
6505;SDS011;3286;49.858;8.768;2023-06-19T08:23:04;5.78;;;3.30;;
6505;SDS011;3286;49.858;8.768;2023-06-19T08:25:31;5.57;;;3.10;;
6505;SDS011;3286;49.858;8.768;2023-06-19T08:27:58;3.25;;;2.95;;
6505;SDS011;3286;49.858;8.768;2023-06-19T08:30:24;3.35;;;3.00;;
6505;SDS011;3286;49.858;8.768;2023-06-19T08:32:52;3.25;;;2.95;;
6505;SDS011;3286;49.858;8.768;2023-06-19T08:35:19;7.25;;;3.30;;
6505;SDS011;3286;49.858;8.768;2023-06-19T08:37:46;3.85;;;2.97;;
6505;SDS011;3286;49.858;8.768;2023-06-19T08:40:12;4.60;;;3.15;;
6505;SDS011;3286;49.858;8.768;2023-06-19T08:42:39;4.63;;;3.55;;
6505;SDS011;3286;49.858;8.768;2023-06-19T08:45:08;7.82;;;2.97;;
6505;SDS011;3286;49.858;8.768;2023-06-19T08:47:35;11.45;;;3.22;;
6505;SDS011;3286;49.858;8.768;2023-06-19T08:50:03;5.05;;;3.20;;
6505;SDS011;3286;49.858;8.768;2023-06-19T08:52:30;3.72;;;3.33;;
6505;SDS011;3286;49.858;8.768;2023-06-19T08:54:57;3.45;;;3.15;;
6505;SDS011;3286;49.858;8.768;2023-06-19T08:57:32;5.15;;;3.28;;
6505;SDS011;3286;49.858;8.768;2023-06-19T08:59:59;4.15;;;3.17;;
6505;SDS011;3286;49.858;8.768;2023-06-19T09:02:35;5.13;;;3.10;;
6505;SDS011;3286;49.858;8.768;2023-06-19T09:05:10;3.95;;;3.55;;
6505;SDS011;3286;49.858;8.768;2023-06-19T09:07:37;4.57;;;3.63;;
6505;SDS011;3286;49.858;8.768;2023-06-19T09:10:11;9.55;;;3.40;;
6505;SDS011;3286;49.858;8.768;2023-06-19T09:12:41;7.78;;;4.85;;
6505;SDS011;3286;49.858;8.768;2023-06-19T09:15:11;4.18;;;3.63;;
6505;SDS011;3286;49.858;8.768;2023-06-19T09:17:38;4.85;;;3.55;;
6505;SDS011;3286;49.858;8.768;2023-06-19T09:20:05;19.10;;;4.22;;
6505;SDS011;3286;49.858;8.768;2023-06-19T09:22:35;4.85;;;3.90;;
6505;SDS011;3286;49.858;8.768;2023-06-19T09:25:02;3.63;;;3.33;;
6505;SDS011;3286;49.858;8.768;2023-06-19T09:27:31;9.32;;;3.63;;
6505;SDS011;3286;49.858;8.768;2023-06-19T09:29:58;3.88;;;3.47;;
6505;SDS011;3286;49.858;8.768;2023-06-19T09:32:25;5.13;;;3.10;;
6505;SDS011;3286;49.858;8.768;2023-06-19T09:34:54;5.03;;;3.38;;
6505;SDS011;3286;49.858;8.768;2023-06-19T09:37:24;3.90;;;3.50;;
6505;SDS011;3286;49.858;8.768;2023-06-19T09:39:53;11.27;;;4.15;;
6505;SDS011;3286;49.858;8.768;2023-06-19T09:42:24;6.65;;;3.70;;
6505;SDS011;3286;49.858;8.768;2023-06-19T09:44:55;5.60;;;3.85;;
6505;SDS011;3286;49.858;8.768;2023-06-19T09:47:25;3.60;;;3.30;;
6505;SDS011;3286;49.858;8.768;2023-06-19T09:49:55;4.47;;;3.70;;
6505;SDS011;3286;49.858;8.768;2023-06-19T09:52:23;3.83;;;3.15;;
6505;SDS011;3286;49.858;8.768;2023-06-19T09:54:50;6.90;;;3.65;;
6505;SDS011;3286;49.858;8.768;2023-06-19T09:57:19;5.78;;;3.33;;
6505;SDS011;3286;49.858;8.768;2023-06-19T09:59:46;8.02;;;3.47;;
6505;SDS011;3286;49.858;8.768;2023-06-19T10:02:16;6.00;;;3.80;;
6505;SDS011;3286;49.858;8.768;2023-06-19T10:04:44;3.40;;;3.10;;
6505;SDS011;3286;49.858;8.768;2023-06-19T10:07:15;4.03;;;3.45;;
6505;SDS011;3286;49.858;8.768;2023-06-19T10:09:54;5.32;;;3.55;;
6505;SDS011;3286;49.858;8.768;2023-06-19T10:12:22;6.43;;;3.30;;
6505;SDS011;3286;49.858;8.768;2023-06-19T10:15:07;4.07;;;3.08;;
6505;SDS011;3286;49.858;8.768;2023-06-19T10:17:45;4.53;;;3.22;;
6505;SDS011;3286;49.858;8.768;2023-06-19T10:20:23;4.15;;;3.40;;
6505;SDS011;3286;49.858;8.768;2023-06-19T10:22:55;3.78;;;3.17;;
6505;SDS011;3286;49.858;8.768;2023-06-19T10:25:24;5.82;;;3.50;;
6505;SDS011;3286;49.858;8.768;2023-06-19T10:27:54;6.47;;;3.72;;
6505;SDS011;3286;49.858;8.768;2023-06-19T10:30:21;4.95;;;3.20;;
6505;SDS011;3286;49.858;8.768;2023-06-19T10:32:48;3.95;;;3.30;;
6505;SDS011;3286;49.858;8.768;2023-06-19T10:35:15;4.28;;;3.35;;
6505;SDS011;3286;49.858;8.768;2023-06-19T10:37:46;3.58;;;3.28;;
6505;SDS011;3286;49.858;8.768;2023-06-19T10:40:13;3.65;;;3.35;;
6505;SDS011;3286;49.858;8.768;2023-06-19T10:42:40;4.70;;;3.22;;
6505;SDS011;3286;49.858;8.768;2023-06-19T10:45:09;6.32;;;3.72;;
6505;SDS011;3286;49.858;8.768;2023-06-19T10:47:39;3.80;;;3.40;;
6505;SDS011;3286;49.858;8.768;2023-06-19T10:50:09;5.25;;;3.28;;
6505;SDS011;3286;49.858;8.768;2023-06-19T10:52:39;6.63;;;3.38;;
6505;SDS011;3286;49.858;8.768;2023-06-19T10:55:07;5.45;;;3.75;;
6505;SDS011;3286;49.858;8.768;2023-06-19T10:57:35;4.30;;;3.50;;
6505;SDS011;3286;49.858;8.768;2023-06-19T11:00:02;5.15;;;3.90;;
6505;SDS011;3286;49.858;8.768;2023-06-19T11:02:37;5.65;;;3.55;;
6505;SDS011;3286;49.858;8.768;2023-06-19T11:05:06;3.47;;;3.17;;
6505;SDS011;3286;49.858;8.768;2023-06-19T11:07:33;4.10;;;3.70;;
6505;SDS011;3286;49.858;8.768;2023-06-19T11:10:00;4.60;;;3.42;;
6505;SDS011;3286;49.858;8.768;2023-06-19T11:12:27;5.80;;;4.03;;
6505;SDS011;3286;49.858;8.768;2023-06-19T11:14:53;6.35;;;3.97;;
6505;SDS011;3286;49.858;8.768;2023-06-19T11:17:20;5.03;;;3.78;;
6505;SDS011;3286;49.858;8.768;2023-06-19T11:19:50;4.38;;;3.72;;
6505;SDS011;3286;49.858;8.768;2023-06-19T11:22:17;4.93;;;3.30;;
6505;SDS011;3286;49.858;8.768;2023-06-19T11:24:44;5.60;;;3.33;;
6505;SDS011;3286;49.858;8.768;2023-06-19T11:27:16;3.78;;;3.47;;
6505;SDS011;3286;49.858;8.768;2023-06-19T11:29:44;4.80;;;3.97;;
6505;SDS011;3286;49.858;8.768;2023-06-19T11:32:13;4.07;;;3.40;;
6505;SDS011;3286;49.858;8.768;2023-06-19T11:34:41;5.00;;;3.10;;
6505;SDS011;3286;49.858;8.768;2023-06-19T11:37:13;5.30;;;2.80;;
6505;SDS011;3286;49.858;8.768;2023-06-19T11:39:41;6.47;;;3.00;;
6505;SDS011;3286;49.858;8.768;2023-06-19T11:42:10;3.03;;;2.53;;
6505;SDS011;3286;49.858;8.768;2023-06-19T11:47:21;6.25;;;3.30;;
6505;SDS011;3286;49.858;8.768;2023-06-19T11:49:47;3.58;;;3.00;;
6505;SDS011;3286;49.858;8.768;2023-06-19T11:52:16;3.17;;;2.90;;
6505;SDS011;3286;49.858;8.768;2023-06-19T11:54:42;3.92;;;3.10;;
6505;SDS011;3286;49.858;8.768;2023-06-19T11:57:09;4.55;;;3.15;;
6505;SDS011;3286;49.858;8.768;2023-06-19T11:59:37;3.13;;;2.80;;
6505;SDS011;3286;49.858;8.768;2023-06-19T12:02:04;3.88;;;2.50;;
6505;SDS011;3286;49.858;8.768;2023-06-19T12:04:31;3.58;;;3.13;;
6505;SDS011;3286;49.858;8.768;2023-06-19T12:06:58;3.47;;;2.88;;
6505;SDS011;3286;49.858;8.768;2023-06-19T12:09:26;5.43;;;3.10;;
6505;SDS011;3286;49.858;8.768;2023-06-19T12:11:53;3.22;;;2.92;;
6505;SDS011;3286;49.858;8.768;2023-06-19T12:14:20;3.78;;;3.05;;
6505;SDS011;3286;49.858;8.768;2023-06-19T12:16:47;4.00;;;3.53;;
6505;SDS011;3286;49.858;8.768;2023-06-19T12:19:13;4.22;;;3.50;;
6505;SDS011;3286;49.858;8.768;2023-06-19T12:21:40;3.47;;;3.05;;
6505;SDS011;3286;49.858;8.768;2023-06-19T12:24:07;10.02;;;3.50;;
6505;SDS011;3286;49.858;8.768;2023-06-19T12:26:35;3.50;;;3.00;;
6505;SDS011;3286;49.858;8.768;2023-06-19T12:29:03;8.38;;;3.35;;
6505;SDS011;3286;49.858;8.768;2023-06-19T12:31:30;3.08;;;2.78;;
6505;SDS011;3286;49.858;8.768;2023-06-19T12:33:57;4.22;;;3.33;;
6505;SDS011;3286;49.858;8.768;2023-06-19T12:36:24;3.47;;;3.17;;
6505;SDS011;3286;49.858;8.768;2023-06-19T12:38:52;2.90;;;2.70;;
6505;SDS011;3286;49.858;8.768;2023-06-19T12:41:18;3.58;;;2.70;;
6505;SDS011;3286;49.858;8.768;2023-06-19T12:43:47;4.78;;;2.95;;
6505;SDS011;3286;49.858;8.768;2023-06-19T12:46:14;4.28;;;2.97;;
6505;SDS011;3286;49.858;8.768;2023-06-19T12:48:41;11.27;;;5.65;;
6505;SDS011;3286;49.858;8.768;2023-06-19T12:51:07;4.70;;;3.45;;
6505;SDS011;3286;49.858;8.768;2023-06-19T12:53:34;3.47;;;3.05;;
6505;SDS011;3286;49.858;8.768;2023-06-19T12:56:01;3.80;;;3.10;;
6505;SDS011;3286;49.858;8.768;2023-06-19T12:58:27;4.40;;;2.95;;
6505;SDS011;3286;49.858;8.768;2023-06-19T13:00:55;5.10;;;3.17;;
6505;SDS011;3286;49.858;8.768;2023-06-19T13:03:22;3.30;;;3.00;;
6505;SDS011;3286;49.858;8.768;2023-06-19T13:05:49;4.85;;;3.53;;
6505;SDS011;3286;49.858;8.768;2023-06-19T13:08:16;3.72;;;3.35;;
6505;SDS011;3286;49.858;8.768;2023-06-19T13:10:42;4.05;;;3.08;;
6505;SDS011;3286;49.858;8.768;2023-06-19T13:13:09;4.35;;;3.20;;
6505;SDS011;3286;49.858;8.768;2023-06-19T13:15:36;3.30;;;2.75;;
6505;SDS011;3286;49.858;8.768;2023-06-19T13:18:04;3.92;;;3.03;;
6505;SDS011;3286;49.858;8.768;2023-06-19T13:20:31;3.60;;;2.90;;
6505;SDS011;3286;49.858;8.768;2023-06-19T13:22:58;3.53;;;2.97;;
6505;SDS011;3286;49.858;8.768;2023-06-19T13:25:24;3.40;;;3.10;;
6505;SDS011;3286;49.858;8.768;2023-06-19T13:27:51;3.65;;;2.90;;
6505;SDS011;3286;49.858;8.768;2023-06-19T13:30:18;3.17;;;2.90;;
6505;SDS011;3286;49.858;8.768;2023-06-19T13:32:44;4.28;;;3.20;;
6505;SDS011;3286;49.858;8.768;2023-06-19T13:35:13;3.22;;;2.92;;
6505;SDS011;3286;49.858;8.768;2023-06-19T13:37:39;5.28;;;3.22;;
6505;SDS011;3286;49.858;8.768;2023-06-19T13:40:06;3.88;;;3.00;;
6505;SDS011;3286;49.858;8.768;2023-06-19T13:42:34;4.07;;;3.10;;
6505;SDS011;3286;49.858;8.768;2023-06-19T13:45:01;2.88;;;2.63;;
6505;SDS011;3286;49.858;8.768;2023-06-19T13:47:28;3.90;;;3.15;;
6505;SDS011;3286;49.858;8.768;2023-06-19T13:49:55;3.53;;;2.83;;
6505;SDS011;3286;49.858;8.768;2023-06-19T13:52:23;3.83;;;2.75;;
6505;SDS011;3286;49.858;8.768;2023-06-19T13:54:50;3.45;;;2.80;;
6505;SDS011;3286;49.858;8.768;2023-06-19T13:57:17;3.22;;;2.80;;
6505;SDS011;3286;49.858;8.768;2023-06-19T13:59:43;7.05;;;2.88;;
6505;SDS011;3286;49.858;8.768;2023-06-19T14:02:10;3.38;;;2.95;;
6505;SDS011;3286;49.858;8.768;2023-06-19T14:04:37;3.08;;;2.78;;
6505;SDS011;3286;49.858;8.768;2023-06-19T14:07:04;4.60;;;2.90;;
6505;SDS011;3286;49.858;8.768;2023-06-19T14:09:32;4.28;;;3.53;;
6505;SDS011;3286;49.858;8.768;2023-06-19T14:11:58;37.95;;;6.03;;
6505;SDS011;3286;49.858;8.768;2023-06-19T14:14:25;6.03;;;2.83;;
6505;SDS011;3286;49.858;8.768;2023-06-19T14:16:52;3.42;;;2.72;;
6505;SDS011;3286;49.858;8.768;2023-06-19T14:19:18;11.65;;;3.95;;
6505;SDS011;3286;49.858;8.768;2023-06-19T14:21:45;33.95;;;6.35;;
6505;SDS011;3286;49.858;8.768;2023-06-19T14:24:12;3.28;;;2.83;;
6505;SDS011;3286;49.858;8.768;2023-06-19T14:26:40;5.07;;;2.72;;
6505;SDS011;3286;49.858;8.768;2023-06-19T14:29:06;2.95;;;2.75;;
6505;SDS011;3286;49.858;8.768;2023-06-19T14:31:33;4.60;;;3.03;;
6505;SDS011;3286;49.858;8.768;2023-06-19T14:34:00;7.47;;;2.70;;
6505;SDS011;3286;49.858;8.768;2023-06-19T14:36:26;2.90;;;2.63;;
6505;SDS011;3286;49.858;8.768;2023-06-19T14:38:53;3.25;;;2.95;;
6505;SDS011;3286;49.858;8.768;2023-06-19T14:41:19;6.45;;;2.83;;
6505;SDS011;3286;49.858;8.768;2023-06-19T14:43:47;9.82;;;2.90;;
6505;SDS011;3286;49.858;8.768;2023-06-19T14:46:14;3.67;;;2.40;;
6505;SDS011;3286;49.858;8.768;2023-06-19T14:48:41;3.33;;;2.58;;
6505;SDS011;3286;49.858;8.768;2023-06-19T14:51:07;2.95;;;2.65;;
6505;SDS011;3286;49.858;8.768;2023-06-19T14:53:36;4.47;;;2.78;;
6505;SDS011;3286;49.858;8.768;2023-06-19T14:56:03;2.92;;;2.25;;
6505;SDS011;3286;49.858;8.768;2023-06-19T14:58:30;4.35;;;2.83;;
6505;SDS011;3286;49.858;8.768;2023-06-19T15:00:58;8.93;;;3.38;;
6505;SDS011;3286;49.858;8.768;2023-06-19T15:03:24;4.03;;;2.60;;
6505;SDS011;3286;49.858;8.768;2023-06-19T15:05:51;3.65;;;2.50;;
6505;SDS011;3286;49.858;8.768;2023-06-19T15:08:17;4.57;;;2.75;;
6505;SDS011;3286;49.858;8.768;2023-06-19T15:10:48;4.00;;;2.80;;
6505;SDS011;3286;49.858;8.768;2023-06-19T15:13:15;2.85;;;2.60;;
6505;SDS011;3286;49.858;8.768;2023-06-19T15:15:42;3.10;;;2.80;;
6505;SDS011;3286;49.858;8.768;2023-06-19T15:18:10;4.03;;;2.47;;
6505;SDS011;3286;49.858;8.768;2023-06-19T15:20:37;2.85;;;2.65;;